createdAt,value
2022-08-17T00:02:26.002Z,22.70
2022-08-17T00:04:57.334Z,22.70
2022-08-17T00:07:24.488Z,22.80
2022-08-17T00:09:51.225Z,22.70
2022-08-17T00:12:41.140Z,22.70
2022-08-17T00:15:10.322Z,22.70
2022-08-17T00:17:37.937Z,22.50
2022-08-17T00:20:05.433Z,22.50
2022-08-17T00:22:36.378Z,22.40
2022-08-17T00:25:12.016Z,22.40
2022-08-17T00:27:39.180Z,22.30
2022-08-17T00:30:08.673Z,22.30
2022-08-17T00:33:12.594Z,22.30
2022-08-17T00:35:32.246Z,22.40
2022-08-17T00:37:59.063Z,22.20
2022-08-17T00:40:25.949Z,22.10
2022-08-17T00:42:53.409Z,22.10
2022-08-17T00:45:20.564Z,22.20
2022-08-17T00:47:47.863Z,22.20
2022-08-17T00:50:17.190Z,22.20
2022-08-17T00:52:52.388Z,22.30
2022-08-17T00:55:20.718Z,22.30
2022-08-17T00:57:55.210Z,22.20
2022-08-17T01:00:35.848Z,22.20
2022-08-17T01:03:07.821Z,22.20
2022-08-17T01:05:38.358Z,22.20
2022-08-17T01:08:13.030Z,22.10
2022-08-17T01:10:58.623Z,22.10
2022-08-17T01:13:40.746Z,22.10
2022-08-17T01:16:28.748Z,22.10
2022-08-17T01:19:02.097Z,22.10
2022-08-17T01:21:50.571Z,22.10
2022-08-17T01:24:21.403Z,21.90
2022-08-17T01:26:48.464Z,21.80
2022-08-17T01:29:15.995Z,21.70
2022-08-17T01:31:47.094Z,21.70
2022-08-17T01:34:15.919Z,21.60
2022-08-17T01:36:47.271Z,21.60
2022-08-17T01:39:43.463Z,21.60
2022-08-17T01:42:34.860Z,21.60
2022-08-17T01:45:18.170Z,21.60
2022-08-17T01:47:45.743Z,21.40
2022-08-17T01:50:17.934Z,21.40
2022-08-17T01:52:47.055Z,21.50
2022-08-17T01:55:17.429Z,21.50
2022-08-17T01:57:45.548Z,21.50
2022-08-17T02:00:14.154Z,21.40
2022-08-17T02:02:41.529Z,21.40
2022-08-17T02:05:08.973Z,21.40
2022-08-17T02:08:00.015Z,21.30
2022-08-17T02:10:23.650Z,21.40
2022-08-17T02:12:50.495Z,21.20
2022-08-17T02:15:17.632Z,21.10
2022-08-17T02:17:44.476Z,21.10
2022-08-17T02:20:11.183Z,21.10
2022-08-17T02:22:41.005Z,21.00
2022-08-17T02:25:11.106Z,21.10
2022-08-17T02:27:39.221Z,20.90
2022-08-17T02:31:00.117Z,20.70
2022-08-17T02:32:56.110Z,20.70
2022-08-17T02:35:23.474Z,20.90
2022-08-17T02:37:51.924Z,21.00
2022-08-17T02:40:36.056Z,21.10
2022-08-17T02:43:04.214Z,21.10
2022-08-17T02:45:30.929Z,21.20
2022-08-17T02:47:57.640Z,21.20
2022-08-17T02:50:25.059Z,21.10
2022-08-17T02:53:02.447Z,21.00
2022-08-17T02:55:35.012Z,20.90
2022-08-17T02:58:03.573Z,20.90
2022-08-17T03:00:36.559Z,21.00
2022-08-17T03:03:05.926Z,21.00
2022-08-17T03:05:35.418Z,20.90
2022-08-17T03:08:03.051Z,20.80
2022-08-17T03:10:29.823Z,20.80
2022-08-17T03:12:56.652Z,20.80
2022-08-17T03:15:27.315Z,20.70
2022-08-17T03:17:55.228Z,20.60
2022-08-17T03:20:22.725Z,20.70
2022-08-17T03:22:53.608Z,20.70
2022-08-17T03:25:26.829Z,20.80
2022-08-17T03:27:54.641Z,20.80
2022-08-17T03:30:25.175Z,20.90
2022-08-17T03:32:54.815Z,20.90
2022-08-17T03:35:25.323Z,21.00
2022-08-17T03:37:59.991Z,21.00
2022-08-17T03:40:39.902Z,21.00
2022-08-17T03:43:17.188Z,21.00
2022-08-17T03:46:02.339Z,21.00
2022-08-17T03:48:47.881Z,21.00
2022-08-17T03:51:38.382Z,21.00
2022-08-17T03:54:25.025Z,20.80
2022-08-17T03:57:06.182Z,20.70
2022-08-17T03:59:34.065Z,20.70
2022-08-17T04:02:04.915Z,20.60
2022-08-17T04:04:31.631Z,20.60
2022-08-17T04:06:58.849Z,20.60
2022-08-17T04:09:25.632Z,20.70
2022-08-17T04:11:53.128Z,20.70
2022-08-17T04:14:20.291Z,20.60
2022-08-17T04:16:47.120Z,20.70
2022-08-17T04:19:13.842Z,20.70
2022-08-17T04:21:40.878Z,20.60
2022-08-17T04:24:07.734Z,20.50
2022-08-17T04:26:53.039Z,20.50
2022-08-17T04:29:21.513Z,20.50
2022-08-17T04:31:48.509Z,20.50
2022-08-17T04:34:19.552Z,20.60
2022-08-17T04:36:50.367Z,20.60
2022-08-17T04:39:17.508Z,20.50
2022-08-17T04:42:02.768Z,20.50
2022-08-17T04:44:37.779Z,20.50
2022-08-17T04:47:05.255Z,20.60
2022-08-17T04:49:32.548Z,20.60
2022-08-17T04:52:04.435Z,20.60
2022-08-17T04:54:31.913Z,20.50
2022-08-17T04:56:58.687Z,20.50
2022-08-17T04:59:25.436Z,20.40
2022-08-17T05:01:52.466Z,20.30
2022-08-17T05:04:33.950Z,20.30
2022-08-17T05:07:03.929Z,20.40
2022-08-17T05:09:31.056Z,20.40
2022-08-17T05:12:01.771Z,20.60
2022-08-17T05:14:32.721Z,20.70
2022-08-17T05:17:01.505Z,20.80
2022-08-17T05:19:30.944Z,20.70
2022-08-17T05:21:57.706Z,20.70
2022-08-17T05:24:42.518Z,20.40
2022-08-17T05:27:10.529Z,20.30
2022-08-17T05:29:44.569Z,20.40
2022-08-17T05:32:39.691Z,20.50
2022-08-17T05:35:00.414Z,20.60
2022-08-17T05:37:27.736Z,20.60
2022-08-17T05:39:54.722Z,20.70
2022-08-17T05:42:22.155Z,20.80
2022-08-17T05:44:48.896Z,20.80
2022-08-17T05:47:15.666Z,20.90
2022-08-17T05:49:42.469Z,20.90
2022-08-17T05:52:48.167Z,21.10
2022-08-17T05:55:32.646Z,21.20
2022-08-17T05:58:35.451Z,21.30
2022-08-17T06:01:36.400Z,21.50
2022-08-17T06:04:14.304Z,21.60
2022-08-17T06:06:49.495Z,21.60
2022-08-17T06:09:36.973Z,21.70
2022-08-17T06:12:31.991Z,21.80
2022-08-17T06:15:07.424Z,21.90
2022-08-17T06:17:35.543Z,21.90
2022-08-17T06:20:10.376Z,22.00
2022-08-17T06:22:43.847Z,22.10
2022-08-17T06:25:18.091Z,22.10
2022-08-17T06:27:59.165Z,22.10
2022-08-17T06:30:29.547Z,22.20
2022-08-17T06:33:23.758Z,22.30
2022-08-17T06:36:09.364Z,22.40
2022-08-17T06:38:45.284Z,22.50
2022-08-17T06:41:26.718Z,22.20
2022-08-17T06:44:11.941Z,22.30
2022-08-17T06:47:27.994Z,22.40
2022-08-17T06:50:15.357Z,22.60
2022-08-17T06:52:57.539Z,22.80
2022-08-17T06:55:45.051Z,22.80
2022-08-17T06:58:16.674Z,23.00
2022-08-17T07:00:47.383Z,22.90
2022-08-17T07:03:20.979Z,23.00
2022-08-17T07:05:53.402Z,23.10
2022-08-17T07:08:57.254Z,23.10
2022-08-17T07:11:27.692Z,23.30
2022-08-17T07:14:03.139Z,23.40
2022-08-17T07:16:37.638Z,23.60
2022-08-17T07:19:10.764Z,23.20
2022-08-17T07:21:54.893Z,23.00
2022-08-17T07:24:48.888Z,23.10
2022-08-17T07:27:21.841Z,23.50
2022-08-17T07:30:10.240Z,23.70
2022-08-17T07:32:45.215Z,23.50
2022-08-17T07:35:16.662Z,23.70
2022-08-17T07:37:54.053Z,23.90
2022-08-17T07:40:26.621Z,23.90
2022-08-17T07:43:11.500Z,24.10
2022-08-17T07:46:16.002Z,24.40
2022-08-17T07:48:49.557Z,24.40
2022-08-17T07:51:34.464Z,24.50
2022-08-17T07:54:22.936Z,24.60
2022-08-17T07:57:00.991Z,24.80
2022-08-17T08:02:21.433Z,25.20
2022-08-17T08:05:29.990Z,25.30
2022-08-17T08:08:42.153Z,25.60
2022-08-17T08:11:16.154Z,25.90
2022-08-17T08:13:46.356Z,26.10
2022-08-17T08:16:29.870Z,26.30
2022-08-17T08:19:05.367Z,26.40
2022-08-17T08:21:47.710Z,26.50
2022-08-17T08:24:42.086Z,26.50
2022-08-17T08:27:22.233Z,26.60
2022-08-17T08:29:57.774Z,26.50
2022-08-17T08:33:04.170Z,26.60
2022-08-17T08:36:04.184Z,26.90
2022-08-17T08:38:39.577Z,26.80
2022-08-17T08:41:16.995Z,26.90
2022-08-17T08:45:03.579Z,27.00
2022-08-17T08:47:49.331Z,27.20
2022-08-17T08:50:40.917Z,27.20
2022-08-17T08:53:36.825Z,27.10
2022-08-17T08:56:16.356Z,27.10
2022-08-17T08:59:02.228Z,27.00
2022-08-17T09:01:45.292Z,27.10
2022-08-17T09:05:02.823Z,27.10
2022-08-17T09:07:41.762Z,27.10
2022-08-17T09:10:34.780Z,27.20
2022-08-17T09:13:22.099Z,27.20
2022-08-17T09:15:57.267Z,27.30
2022-08-17T09:19:02.629Z,27.40
2022-08-17T09:21:26.735Z,27.10
2022-08-17T09:24:04.851Z,27.30
2022-08-17T09:26:41.174Z,27.40
2022-08-17T09:29:15.672Z,27.60
2022-08-17T09:32:03.840Z,27.80
2022-08-17T09:34:57.076Z,27.60
2022-08-17T09:37:37.583Z,27.60
2022-08-17T09:40:31.838Z,27.60
2022-08-17T09:43:28.637Z,27.90
2022-08-17T09:46:03.463Z,28.00
2022-08-17T09:48:44.440Z,27.90
2022-08-17T09:51:21.944Z,27.90
2022-08-17T09:53:49.834Z,28.10
2022-08-17T09:56:43.791Z,28.20
2022-08-17T09:59:28.108Z,28.10
2022-08-17T10:02:27.773Z,28.10
2022-08-17T10:05:08.356Z,28.30
2022-08-17T10:07:59.780Z,28.20
2022-08-17T10:10:35.236Z,28.20
2022-08-17T10:13:18.722Z,27.70
2022-08-17T10:16:11.668Z,27.70
2022-08-17T10:18:49.697Z,27.90
2022-08-17T10:21:37.148Z,28.20
2022-08-17T10:24:32.702Z,28.30
2022-08-17T10:27:02.872Z,28.30
2022-08-17T10:29:48.887Z,28.20
2022-08-17T10:32:32.800Z,28.20
2022-08-17T10:35:16.542Z,28.20
2022-08-17T10:38:12.037Z,28.30
2022-08-17T10:41:11.297Z,28.30
2022-08-17T10:44:37.972Z,28.10
2022-08-17T10:47:07.326Z,27.90
2022-08-17T10:49:36.900Z,27.80
2022-08-17T10:52:22.835Z,27.60
2022-08-17T10:54:51.829Z,27.60
2022-08-17T10:57:34.311Z,27.70
2022-08-17T11:00:25.558Z,27.80
2022-08-17T11:02:56.087Z,27.70
2022-08-17T11:05:56.262Z,27.60
2022-08-17T11:08:25.762Z,27.20
2022-08-17T11:10:58.501Z,26.80
2022-08-17T11:14:09.894Z,26.60
2022-08-17T11:16:51.451Z,26.20
2022-08-17T11:19:51.202Z,26.20
2022-08-17T11:22:39.280Z,26.30
2022-08-17T11:25:21.283Z,26.30
2022-08-17T11:27:53.707Z,26.40
2022-08-17T11:30:40.794Z,26.40
2022-08-17T11:33:28.948Z,26.50
2022-08-17T11:36:23.114Z,26.60
2022-08-17T11:39:00.278Z,26.70
2022-08-17T11:41:39.521Z,26.80
2022-08-17T11:44:37.759Z,26.90
2022-08-17T11:47:33.232Z,27.10
2022-08-17T11:51:01.294Z,27.10
2022-08-17T11:53:37.229Z,27.00
2022-08-17T11:56:31.698Z,27.00
2022-08-17T11:59:00.730Z,26.70
2022-08-17T12:01:29.028Z,26.50
2022-08-17T12:04:16.734Z,26.50
2022-08-17T12:06:56.974Z,26.40
2022-08-17T12:09:31.827Z,26.50
2022-08-17T12:12:13.389Z,26.50
2022-08-17T12:17:40.167Z,26.50
2022-08-17T12:20:19.626Z,26.40
2022-08-17T12:22:57.574Z,26.40
2022-08-17T12:25:37.374Z,26.50
2022-08-17T12:28:20.006Z,26.50
2022-08-17T12:30:52.012Z,26.70
2022-08-17T12:33:28.255Z,26.80
2022-08-17T12:36:05.866Z,26.80
2022-08-17T12:38:36.006Z,26.90
2022-08-17T12:41:38.012Z,26.70
2022-08-17T12:44:13.283Z,26.50
2022-08-17T12:46:54.060Z,26.50
2022-08-17T12:49:36.146Z,26.70
2022-08-17T12:52:29.002Z,26.90
2022-08-17T12:54:59.753Z,26.80
2022-08-17T12:57:33.853Z,26.80
2022-08-17T13:00:12.319Z,26.50
2022-08-17T13:02:46.981Z,26.20
2022-08-17T13:05:37.773Z,26.40
2022-08-17T13:08:17.423Z,26.90
2022-08-17T13:10:58.133Z,27.30
2022-08-17T13:13:28.235Z,27.70
2022-08-17T13:16:01.075Z,28.10
2022-08-17T13:18:39.806Z,28.40
2022-08-17T13:21:26.623Z,28.80
2022-08-17T13:24:04.607Z,28.90
2022-08-17T13:26:54.315Z,28.80
2022-08-17T13:29:45.358Z,28.80
2022-08-17T13:32:44.107Z,28.80
2022-08-17T13:35:47.669Z,28.70
2022-08-17T13:38:45.647Z,28.70
2022-08-17T13:41:34.628Z,28.70
2022-08-17T13:44:02.009Z,28.70
2022-08-17T13:46:31.259Z,28.60
2022-08-17T13:49:05.493Z,28.50
2022-08-17T13:51:42.973Z,28.40
2022-08-17T13:54:27.740Z,28.40
2022-08-17T13:57:02.299Z,28.30
2022-08-17T13:59:54.426Z,28.30
2022-08-17T14:02:27.653Z,28.20
2022-08-17T14:04:56.325Z,28.10
2022-08-17T14:07:30.997Z,28.10
2022-08-17T14:09:59.921Z,28.20
2022-08-17T14:12:28.932Z,28.20
2022-08-17T14:14:56.423Z,28.20
2022-08-17T14:17:25.066Z,28.30
2022-08-17T14:19:52.569Z,28.50
2022-08-17T14:22:25.631Z,28.60
2022-08-17T14:24:52.524Z,28.70
2022-08-17T14:27:20.349Z,28.80
2022-08-17T14:29:47.910Z,29.00
2022-08-17T14:32:27.527Z,29.10
2022-08-17T14:34:56.645Z,29.30
2022-08-17T14:37:27.827Z,29.40
2022-08-17T14:39:56.392Z,29.50
2022-08-17T14:42:26.104Z,29.60
2022-08-17T14:44:54.906Z,29.60
2022-08-17T14:47:22.239Z,29.60
2022-08-17T14:49:49.463Z,29.60
2022-08-17T14:52:22.415Z,29.50
2022-08-17T14:54:54.112Z,29.50
2022-08-17T14:57:33.369Z,29.50
2022-08-17T15:00:01.873Z,29.60
2022-08-17T15:02:30.914Z,29.70
2022-08-17T15:05:04.006Z,29.60
2022-08-17T15:07:31.986Z,29.70
2022-08-17T15:10:01.473Z,29.70
2022-08-17T15:12:33.299Z,29.90
2022-08-17T15:15:02.251Z,30.00
2022-08-17T15:17:43.754Z,30.00
2022-08-17T15:20:15.317Z,30.10
2022-08-17T15:22:43.359Z,30.20
2022-08-17T15:25:11.559Z,30.20
2022-08-17T15:27:40.169Z,30.40
2022-08-17T15:30:08.643Z,30.50
2022-08-17T15:32:38.544Z,30.60
2022-08-17T15:35:07.233Z,30.60
2022-08-17T15:37:34.160Z,30.70
2022-08-17T15:40:01.261Z,30.70
2022-08-17T15:42:29.172Z,30.70
2022-08-17T15:44:56.031Z,30.70
2022-08-17T15:47:23.390Z,30.70
2022-08-17T15:49:50.751Z,30.70
2022-08-17T15:52:20.843Z,30.70
2022-08-17T15:54:51.083Z,30.70
2022-08-17T15:57:18.126Z,30.70
2022-08-17T15:59:45.085Z,30.70
2022-08-17T16:03:45.450Z,30.60
2022-08-17T16:05:11.229Z,30.50
2022-08-17T16:07:40.419Z,30.40
2022-08-17T16:10:09.356Z,30.30
2022-08-17T16:12:36.644Z,30.20
2022-08-17T16:15:05.143Z,30.20
2022-08-17T16:17:49.470Z,30.30
2022-08-17T16:20:19.642Z,30.30
2022-08-17T16:22:46.705Z,30.30
2022-08-17T16:25:18.662Z,30.40
2022-08-17T16:27:48.242Z,30.40
2022-08-17T16:30:21.794Z,30.30
2022-08-17T16:32:53.549Z,30.10
2022-08-17T16:35:22.543Z,30.00
2022-08-17T16:37:49.424Z,30.00
2022-08-17T16:40:17.019Z,29.90
2022-08-17T16:42:46.676Z,29.80
2022-08-17T16:45:20.039Z,29.70
2022-08-17T16:47:49.842Z,29.70
2022-08-17T16:50:19.610Z,29.60
2022-08-17T16:52:50.243Z,29.50
2022-08-17T16:55:22.211Z,29.50
2022-08-17T16:57:50.412Z,29.40
2022-08-17T17:00:19.440Z,29.40
2022-08-17T17:02:47.990Z,29.30
2022-08-17T17:05:44.813Z,29.10
2022-08-17T17:08:30.604Z,29.00
2022-08-17T17:11:03.608Z,28.70
2022-08-17T17:13:43.903Z,28.60
2022-08-17T17:16:26.230Z,28.50
2022-08-17T17:19:09.391Z,28.60
2022-08-17T17:21:43.908Z,28.50
2022-08-17T17:24:16.554Z,28.20
2022-08-17T17:27:07.709Z,28.00
2022-08-17T17:30:00.829Z,28.00
2022-08-17T17:32:39.474Z,28.10
2022-08-17T17:35:21.431Z,28.10
2022-08-17T17:37:50.034Z,28.10
2022-08-17T17:40:26.638Z,28.00
2022-08-17T17:42:56.416Z,27.90
2022-08-17T17:45:37.390Z,27.80
2022-08-17T17:48:04.290Z,27.70
2022-08-17T17:50:44.137Z,27.80
2022-08-17T17:53:34.872Z,27.90
2022-08-17T17:56:46.227Z,27.90
2022-08-17T17:59:18.997Z,27.90
2022-08-17T18:02:42.163Z,27.70
2022-08-17T18:05:39.419Z,27.70
2022-08-17T18:08:34.697Z,27.70
2022-08-17T18:11:35.098Z,27.70
2022-08-17T18:14:37.318Z,27.60
2022-08-17T18:17:05.748Z,27.50
2022-08-17T18:19:32.860Z,27.40
2022-08-17T18:22:18.595Z,27.30
2022-08-17T18:24:55.842Z,27.40
2022-08-17T18:27:33.045Z,27.40
2022-08-17T18:30:05.896Z,27.40
2022-08-17T18:32:37.225Z,27.40
2022-08-17T18:35:10.016Z,27.10
2022-08-17T18:37:47.695Z,26.80
2022-08-17T18:40:17.297Z,26.70
2022-08-17T18:43:02.943Z,26.60
2022-08-17T18:45:51.969Z,26.50
2022-08-17T18:48:36.711Z,26.40
2022-08-17T18:51:42.219Z,26.40
2022-08-17T18:54:22.794Z,26.40
2022-08-17T18:56:56.172Z,26.40
2022-08-17T18:59:31.849Z,26.40
2022-08-17T19:02:24.228Z,26.50
2022-08-17T19:05:28.186Z,26.60
2022-08-17T19:08:22.414Z,26.60
2022-08-17T19:11:11.820Z,26.50
2022-08-17T19:13:45.434Z,26.40
2022-08-17T19:16:41.145Z,26.30
2022-08-17T19:19:23.296Z,26.20
2022-08-17T19:21:59.735Z,26.20
2022-08-17T19:24:29.872Z,26.20
2022-08-17T19:27:34.946Z,26.20
2022-08-17T19:30:16.404Z,26.20
2022-08-17T19:32:43.440Z,26.10
2022-08-17T19:35:17.299Z,25.60
2022-08-17T19:38:26.559Z,25.10
2022-08-17T19:41:02.773Z,25.00
2022-08-17T19:43:58.612Z,25.00
2022-08-17T19:46:49.916Z,25.20
2022-08-17T19:49:46.565Z,25.20
2022-08-17T19:52:43.035Z,25.30
2022-08-17T19:55:21.006Z,25.30
2022-08-17T19:58:11.680Z,25.30
2022-08-17T20:01:05.528Z,25.30
2022-08-17T20:03:50.982Z,25.30
2022-08-17T20:06:44.306Z,24.90
2022-08-17T20:09:20.054Z,24.60
2022-08-17T20:11:54.851Z,24.60
2022-08-17T20:14:35.595Z,24.70
2022-08-17T20:17:06.113Z,24.80
2022-08-17T20:19:38.850Z,24.80
2022-08-17T20:22:13.421Z,24.90
2022-08-17T20:25:14.888Z,24.80
2022-08-17T20:28:00.633Z,24.80
2022-08-17T20:30:38.049Z,24.70
2022-08-17T20:33:08.692Z,24.80
2022-08-17T20:36:02.633Z,24.80
2022-08-17T20:38:56.349Z,24.80
2022-08-17T20:41:29.335Z,24.70
2022-08-17T20:43:59.117Z,24.60
2022-08-17T20:46:38.137Z,24.60
2022-08-17T20:49:38.181Z,24.60
2022-08-17T20:52:16.596Z,24.50
2022-08-17T20:55:00.410Z,24.20
2022-08-17T20:57:33.399Z,24.00
2022-08-17T21:00:29.137Z,24.00
2022-08-17T21:03:23.997Z,23.90
2022-08-17T21:06:14.440Z,23.90
2022-08-17T21:09:01.463Z,24.00
2022-08-17T21:11:57.303Z,24.10
2022-08-17T21:15:03.917Z,24.10
2022-08-17T21:17:59.144Z,23.90
2022-08-17T21:20:45.386Z,23.80
2022-08-17T21:23:41.851Z,23.70
2022-08-17T21:26:20.707Z,23.60
2022-08-17T21:29:17.192Z,23.60
2022-08-17T21:32:03.535Z,23.70
2022-08-17T21:34:32.902Z,23.80
2022-08-17T21:37:19.959Z,23.80
2022-08-17T21:40:18.316Z,23.80
2022-08-17T21:43:08.316Z,23.70
2022-08-17T21:45:41.162Z,23.40
2022-08-17T21:48:16.028Z,23.10
2022-08-17T21:51:12.115Z,22.90
2022-08-17T21:53:51.940Z,23.00
2022-08-17T21:56:32.822Z,23.10
2022-08-17T21:59:05.736Z,23.00
2022-08-17T22:01:39.346Z,23.00
2022-08-17T22:04:11.993Z,23.10
2022-08-17T22:06:42.308Z,23.30
2022-08-17T22:09:23.613Z,23.50
2022-08-17T22:12:20.942Z,23.60
2022-08-17T22:15:06.033Z,23.70
2022-08-17T22:17:36.365Z,23.70
2022-08-17T22:20:19.231Z,23.70
2022-08-17T22:23:04.523Z,23.70
2022-08-17T22:25:35.988Z,23.80
2022-08-17T22:28:09.088Z,23.80
2022-08-17T22:30:39.457Z,23.80
2022-08-17T22:33:37.263Z,23.70
2022-08-17T22:36:39.501Z,23.70
2022-08-17T22:39:08.882Z,23.70
2022-08-17T22:41:48.116Z,23.70
2022-08-17T22:44:27.767Z,23.50
2022-08-17T22:47:13.110Z,23.30
2022-08-17T22:50:01.386Z,23.10
2022-08-17T22:52:59.191Z,22.70
2022-08-17T22:55:45.815Z,22.50
2022-08-17T22:58:40.324Z,22.70
2022-08-17T23:01:26.241Z,22.80
2022-08-17T23:03:56.228Z,22.70
2022-08-17T23:06:24.302Z,22.50
2022-08-17T23:08:56.412Z,22.60
2022-08-17T23:11:36.619Z,22.80
2022-08-17T23:14:15.737Z,23.00
2022-08-17T23:16:42.955Z,23.10
2022-08-17T23:19:11.557Z,23.10
2022-08-17T23:21:38.453Z,23.00
2022-08-17T23:24:07.591Z,22.80
2022-08-17T23:26:37.926Z,22.80
2022-08-17T23:29:08.905Z,23.00
2022-08-17T23:31:37.171Z,23.10
2022-08-17T23:34:08.934Z,23.30
2022-08-17T23:36:36.390Z,23.40
2022-08-17T23:39:04.617Z,23.50
2022-08-17T23:41:35.659Z,23.50
2022-08-17T23:44:05.491Z,23.10
2022-08-17T23:46:32.728Z,23.10
2022-08-17T23:48:59.511Z,23.20
2022-08-17T23:51:34.504Z,23.40
2022-08-17T23:54:19.438Z,23.30
2022-08-17T23:56:49.194Z,23.00
2022-08-17T23:59:18.496Z,23.00
